Glenwood, Iowa
Current Conditions -  °F | °C
As of 8:58 AM on Monday 22 Dec 2014 (Local Time) from KOFF Reporting Station
Light Rain Light Rain  
Wind Chill: 35°   Ceiling: 600
Heat Index: 42°   Visibility: 5mi
Dew Point: 40°   Wind: 12mph
Humidity: 96%   Direction: 130°SE
Pressure: 29.52"   Gusts: NA
Location:  41.05°N, 95.74°W
Report Text: KOFF 221458Z 13010KT 5SM -RA BR OVC006 05/05 A2952 RMK SLP006 P0006 60016 T00530047 58009
Loading
Personal Weather Stations






























Interactive Weather Map New forecast layout! Learn more

10-Day Weather Forecast

Advertisements
Track Severe Weather on mobile